createdAt,value
2018-03-25T00:00:03.859Z,85.50
2018-03-25T00:05:11.037Z,85.80
2018-03-25T00:10:14.270Z,85.90
2018-03-25T00:15:17.968Z,86.20
2018-03-25T00:20:21.258Z,86.20
2018-03-25T00:25:24.474Z,86.70
2018-03-25T00:30:27.726Z,86.60
2018-03-25T00:35:30.966Z,86.80
2018-03-25T00:40:36.331Z,87.00
2018-03-25T00:45:39.569Z,87.00
2018-03-25T00:50:43.204Z,88.30
2018-03-25T00:55:46.523Z,88.30
2018-03-25T01:00:50.450Z,88.70
2018-03-25T01:05:53.692Z,89.10
2018-03-25T01:10:56.992Z,89.10
2018-03-25T01:16:10.170Z,89.70
2018-03-25T01:21:13.977Z,89.30
2018-03-25T01:26:17.205Z,89.30
2018-03-25T01:31:20.428Z,89.30
2018-03-25T01:36:23.670Z,89.70
2018-03-25T01:41:26.900Z,89.60
2018-03-25T01:46:30.111Z,89.80
2018-03-25T01:51:33.315Z,89.20
2018-03-25T01:56:36.618Z,89.00
2018-03-25T02:01:39.890Z,89.10
2018-03-25T02:06:43.121Z,89.60
2018-03-25T02:11:46.330Z,90.70
2018-03-25T02:16:49.558Z,90.00
2018-03-25T02:21:53.183Z,90.60
2018-03-25T02:26:56.394Z,90.60
2018-03-25T02:31:59.618Z,90.70
2018-03-25T02:37:02.824Z,90.80
2018-03-25T02:42:06.079Z,91.10
2018-03-25T02:47:09.315Z,90.80
2018-03-25T02:52:12.520Z,91.00
2018-03-25T02:57:15.795Z,91.40
2018-03-25T03:02:19.042Z,91.30
2018-03-25T03:07:22.273Z,91.40
2018-03-25T03:12:25.619Z,91.10
2018-03-25T03:17:28.839Z,90.90
2018-03-25T03:22:32.498Z,91.00
2018-03-25T03:27:36.467Z,91.00
2018-03-25T03:32:40.105Z,91.00
2018-03-25T03:37:43.312Z,91.00
2018-03-25T03:42:46.526Z,91.10
2018-03-25T03:47:49.855Z,91.40
2018-03-25T03:52:53.086Z,91.40
2018-03-25T03:57:56.409Z,91.50
2018-03-25T04:02:59.717Z,91.70
2018-03-25T04:08:02.943Z,91.90
2018-03-25T04:13:06.656Z,92.20
2018-03-25T04:18:10.050Z,92.20
2018-03-25T04:23:13.272Z,91.40
2018-03-25T04:28:16.901Z,91.30
2018-03-25T04:33:20.124Z,91.30
2018-03-25T04:38:23.384Z,90.60
2018-03-25T04:43:26.710Z,92.40
2018-03-25T04:48:30.327Z,93.30
2018-03-25T04:53:35.006Z,93.00
2018-03-25T04:58:38.227Z,93.00
2018-03-25T05:03:41.468Z,93.20
2018-03-25T05:08:45.090Z,93.20
2018-03-25T05:13:48.896Z,92.90
2018-03-25T05:18:52.691Z,92.70
2018-03-25T05:23:55.910Z,92.70
2018-03-25T05:28:59.164Z,92.90
2018-03-25T05:34:02.459Z,93.20
2018-03-25T05:39:06.089Z,93.10
2018-03-25T05:44:09.303Z,93.10
2018-03-25T05:49:12.538Z,93.50
2018-03-25T05:54:15.777Z,93.10
2018-03-25T05:59:19.407Z,92.80
2018-03-25T06:04:22.684Z,92.80
2018-03-25T06:09:25.909Z,93.30
2018-03-25T06:14:29.542Z,92.60
2018-03-25T06:19:32.756Z,92.60
2018-03-25T06:24:36.330Z,91.90
2018-03-25T06:29:39.953Z,91.40
2018-03-25T06:34:43.574Z,91.00
2018-03-25T06:39:46.797Z,90.90
2018-03-25T06:44:50.068Z,90.30
2018-03-25T06:49:53.968Z,90.60
2018-03-25T06:54:57.192Z,90.60
2018-03-25T07:00:00.414Z,90.20
2018-03-25T07:05:04.066Z,88.60
2018-03-25T07:10:07.320Z,88.60
2018-03-25T07:15:10.587Z,88.40
2018-03-25T07:20:13.808Z,88.40
2018-03-25T07:25:17.035Z,89.20
2018-03-25T07:30:20.281Z,87.90
2018-03-25T07:35:23.521Z,86.80
2018-03-25T07:40:26.761Z,86.10
2018-03-25T07:45:30.434Z,82.50
2018-03-25T07:50:33.781Z,82.50
2018-03-25T07:55:37.022Z,84.60
2018-03-25T08:00:40.292Z,84.40
2018-03-25T08:05:43.569Z,83.70
2018-03-25T08:10:46.804Z,83.10
2018-03-25T08:15:50.092Z,82.80
2018-03-25T08:20:53.310Z,82.50
2018-03-25T08:25:56.533Z,81.80
2018-03-25T08:31:00.238Z,81.50
2018-03-25T08:36:03.482Z,81.50
2018-03-25T08:41:06.954Z,82.10
2018-03-25T08:46:10.261Z,80.90
2018-03-25T08:51:13.496Z,80.40
2018-03-25T08:56:16.799Z,79.40
2018-03-25T09:01:20.464Z,79.00
2018-03-25T09:06:23.676Z,79.00
2018-03-25T09:11:27.004Z,77.70
2018-03-25T09:16:30.325Z,77.50
2018-03-25T09:21:34.028Z,75.80
2018-03-25T09:26:37.648Z,75.50
2018-03-25T09:31:41.264Z,75.60
2018-03-25T09:36:44.989Z,75.30
2018-03-25T09:41:48.691Z,75.00
2018-03-25T09:46:52.313Z,74.70
2018-03-25T09:51:55.925Z,73.00
2018-03-25T09:56:59.685Z,72.30
2018-03-25T10:02:04.733Z,72.30
2018-03-25T10:07:08.022Z,70.90
2018-03-25T10:12:11.268Z,71.60
2018-03-25T10:17:14.476Z,70.80
2018-03-25T10:22:18.260Z,68.80
2018-03-25T10:27:21.499Z,70.40
2018-03-25T10:32:24.737Z,69.70
2018-03-25T10:37:28.362Z,69.20
2018-03-25T10:42:33.295Z,69.20
2018-03-25T10:47:36.935Z,68.00
2018-03-25T10:52:40.212Z,68.00
2018-03-25T10:57:43.864Z,66.60
2018-03-25T11:02:47.134Z,66.60
2018-03-25T11:13:00.442Z,65.60
2018-03-25T11:18:03.688Z,65.70
2018-03-25T11:23:06.950Z,64.30
2018-03-25T11:28:10.206Z,59.20
2018-03-25T11:33:13.531Z,56.50
2018-03-25T11:38:17.162Z,53.10
2018-03-25T11:43:20.890Z,52.30
2018-03-25T11:48:24.124Z,52.30
2018-03-25T11:53:27.686Z,50.80
2018-03-25T11:58:31.316Z,49.30
2018-03-25T12:03:34.739Z,49.20
2018-03-25T12:08:37.969Z,49.90
2018-03-25T12:13:41.237Z,50.10
2018-03-25T12:18:44.865Z,49.10
2018-03-25T12:23:48.099Z,49.00
2018-03-25T12:28:51.344Z,49.80
2018-03-25T12:33:54.989Z,48.60
2018-03-25T12:38:58.223Z,48.60
2018-03-25T12:44:01.574Z,49.10
2018-03-25T13:00:38.672Z,48.10
2018-03-25T13:05:44.298Z,48.20
2018-03-25T13:10:47.634Z,47.70
2018-03-25T13:15:51.339Z,47.90
2018-03-25T13:20:54.911Z,48.40
2018-03-25T13:25:58.250Z,52.10
2018-03-25T13:31:01.764Z,55.00
2018-03-25T13:36:05.487Z,56.30
2018-03-25T13:41:09.306Z,56.90
2018-03-25T13:46:12.617Z,56.90
2018-03-25T13:51:16.330Z,57.60
2018-03-25T13:56:20.012Z,57.00
2018-03-25T14:01:23.504Z,57.00
2018-03-25T14:06:26.735Z,57.40
2018-03-25T14:11:30.029Z,57.10
2018-03-25T14:16:35.412Z,54.10
2018-03-25T14:21:38.629Z,54.10
2018-03-25T14:26:42.344Z,55.00
2018-03-25T14:31:46.032Z,53.60
2018-03-25T14:36:49.269Z,53.60
2018-03-25T14:41:52.916Z,56.20
2018-03-25T14:46:56.171Z,56.20
2018-03-25T14:51:59.435Z,55.50
2018-03-25T14:57:02.674Z,54.30
2018-03-25T15:02:06.001Z,55.80
2018-03-25T15:07:09.618Z,57.30
2018-03-25T15:12:13.294Z,58.70
2018-03-25T15:17:16.528Z,58.70
2018-03-25T15:22:19.780Z,58.20
2018-03-25T15:27:23.100Z,58.50
2018-03-25T15:32:26.353Z,59.50
2018-03-25T15:37:29.598Z,59.50
2018-03-25T15:42:32.841Z,60.00
2018-03-25T15:47:36.087Z,60.30
2018-03-25T15:52:39.477Z,60.90
2018-03-25T15:57:42.736Z,59.60
2018-03-25T16:02:45.969Z,59.70
2018-03-25T16:07:49.224Z,60.60
2018-03-25T16:12:52.605Z,60.30
2018-03-25T16:17:55.829Z,61.10
2018-03-25T16:22:59.437Z,61.40
2018-03-25T16:28:03.045Z,62.20
2018-03-25T16:33:06.656Z,62.90
2018-03-25T16:38:10.374Z,63.30
2018-03-25T16:43:13.991Z,64.00
2018-03-25T16:48:17.607Z,64.70
2018-03-25T16:53:21.231Z,65.40
2018-03-25T16:58:24.932Z,65.80
2018-03-25T17:03:28.221Z,65.80
2018-03-25T17:08:32.465Z,66.10
2018-03-25T17:13:36.153Z,67.10
2018-03-25T17:18:39.443Z,67.10
2018-03-25T17:23:50.076Z,66.90
2018-03-25T17:28:53.884Z,67.30
2018-03-25T17:33:57.168Z,68.50
2018-03-25T17:39:03.572Z,69.80
2018-03-25T17:44:08.626Z,71.20
2018-03-25T17:49:14.803Z,72.70
2018-03-25T17:54:22.312Z,72.70
2018-03-25T17:59:31.888Z,73.10
2018-03-25T18:04:41.309Z,72.60
2018-03-25T18:09:48.699Z,72.60
2018-03-25T18:14:55.724Z,72.90
2018-03-25T18:19:59.665Z,73.30
2018-03-25T18:25:06.046Z,74.60
2018-03-25T18:30:10.497Z,74.60
2018-03-25T18:35:18.960Z,75.30
2018-03-25T18:40:24.987Z,75.60
2018-03-25T18:45:30.964Z,75.60
2018-03-25T18:50:37.936Z,74.90
2018-03-25T18:55:42.999Z,74.50
2018-03-25T19:00:47.210Z,74.60
2018-03-25T19:05:53.290Z,74.20
2018-03-25T19:10:59.206Z,74.60
2018-03-25T19:16:05.025Z,74.60
2018-03-25T19:21:12.335Z,74.60
2018-03-25T19:26:18.377Z,74.20
2018-03-25T19:31:27.616Z,71.80
2018-03-25T19:36:36.852Z,70.70
2018-03-25T19:41:41.476Z,70.70
2018-03-25T19:46:51.471Z,72.30
2018-03-25T19:51:56.895Z,73.10
2018-03-25T19:57:02.537Z,72.70
2018-03-25T20:02:07.619Z,73.00
2018-03-25T20:07:11.895Z,73.20
2018-03-25T20:12:18.949Z,73.90
2018-03-25T20:17:23.554Z,73.90
2018-03-25T20:22:28.815Z,72.60
2018-03-25T20:27:34.394Z,72.70
2018-03-25T20:32:41.856Z,73.50
2018-03-25T20:37:49.548Z,73.50
2018-03-25T20:42:55.960Z,72.40
2018-03-25T20:48:01.970Z,74.00
2018-03-25T20:53:08.504Z,74.00
2018-03-25T20:58:16.819Z,72.50
2018-03-25T21:03:22.617Z,73.00
2018-03-25T21:08:27.964Z,73.10
2018-03-25T21:13:41.405Z,74.20
2018-03-25T21:18:46.432Z,74.20
2018-03-25T21:23:50.981Z,74.40
2018-03-25T21:28:57.648Z,74.80
2018-03-25T21:34:02.040Z,75.70
2018-03-25T21:39:07.558Z,76.50
2018-03-25T21:44:13.699Z,76.50
2018-03-25T21:49:19.553Z,75.40
2018-03-25T21:54:26.684Z,74.60
2018-03-25T21:59:31.028Z,73.60
2018-03-25T22:04:40.496Z,73.10
2018-03-25T22:09:44.839Z,73.10
2018-03-25T22:14:48.223Z,73.20
2018-03-25T22:19:52.343Z,74.00
2018-03-25T22:24:56.102Z,74.00
2018-03-25T22:29:59.371Z,74.00
2018-03-25T22:35:03.076Z,74.10
2018-03-25T22:40:12.283Z,74.40
2018-03-25T22:45:17.252Z,74.50
2018-03-25T22:50:28.025Z,75.20
2018-03-25T22:55:32.321Z,75.40
2018-03-25T23:00:35.601Z,75.40
2018-03-25T23:05:40.130Z,75.40
2018-03-25T23:10:43.391Z,75.40
2018-03-25T23:15:46.646Z,75.00
2018-03-25T23:20:49.872Z,74.40
2018-03-25T23:25:53.103Z,73.40
2018-03-25T23:30:56.765Z,73.10
2018-03-25T23:36:00.019Z,73.10
2018-03-25T23:41:03.327Z,73.20
2018-03-25T23:46:06.632Z,73.80
2018-03-25T23:51:09.851Z,74.70
2018-03-25T23:56:13.629Z,75.70
